Time;durP1;ratioP1;P1;durP2;ratioP2;P2;SDS_P1;SDS_P2;PMS_P1;PMS_P2;Temp;Humidity;BMP_temperature;BMP_pressure;BME280_temperature;BME280_humidity;BME280_pressure;Samples;Min_cycle;Max_cycle;Signal;HPM_P1;HPM_P2
2020/12/21 00:02:19;;;;;;;14.88;5.35;;;4.90;99.90;;;;;;5077182;28;20047;-61
2020/12/21 00:04:44;;;;;;;24.45;5.28;;;4.80;99.90;;;;;;5079103;28;20024;-64
2020/12/21 00:07:10;;;;;;;19.02;5.93;;;4.80;99.90;;;;;;5075569;28;20498;-64
2020/12/21 00:09:35;;;;;;;16.63;6.28;;;4.80;99.90;;;;;;5086601;28;20074;-64
2020/12/21 00:12:01;;;;;;;20.50;5.93;;;4.80;99.90;;;;;;5088875;28;20036;-63
2020/12/21 00:14:26;;;;;;;26.73;6.22;;;4.80;99.90;;;;;;5085204;28;20558;-63
2020/12/21 00:16:53;;;;;;;26.73;5.82;;;4.80;99.90;;;;;;5072890;28;20024;-65
2020/12/21 00:19:22;;;;;;;26.55;6.05;;;4.80;99.90;;;;;;5087114;28;20028;-64
2020/12/21 00:21:51;;;;;;;13.02;5.10;;;4.80;99.90;;;;;;5088722;28;20116;-63
2020/12/21 00:24:17;;;;;;;19.90;5.30;;;4.70;99.90;;;;;;5070218;28;20548;-62
2020/12/21 00:26:47;;;;;;;15.55;5.13;;;4.70;99.90;;;;;;5068367;28;20032;-64
2020/12/21 00:29:14;;;;;;;13.43;4.82;;;4.60;99.90;;;;;;5068496;28;20028;-64
2020/12/21 00:31:40;;;;;;;22.35;7.10;;;4.60;99.90;;;;;;5068795;28;20480;-64
2020/12/21 00:34:07;;;;;;;19.92;6.07;;;4.60;99.90;;;;;;5082056;28;20043;-62
2020/12/21 00:36:43;;;;;;;16.40;5.70;;;4.60;99.90;;;;;;5097893;28;20509;-64
2020/12/21 00:39:09;;;;;;;16.63;5.68;;;4.60;99.90;;;;;;5072752;28;20100;-65
2020/12/21 00:41:35;;;;;;;15.07;5.22;;;4.60;99.90;;;;;;5080218;28;20035;-65
2020/12/21 00:44:01;;;;;;;13.10;4.38;;;4.60;99.90;;;;;;5092396;28;20087;-66
2020/12/21 00:46:29;;;;;;;15.27;4.75;;;4.50;99.90;;;;;;5091993;28;20106;-64
2020/12/21 00:48:57;;;;;;;14.88;4.65;;;4.40;99.90;;;;;;5083014;28;20098;-65
2020/12/21 00:51:22;;;;;;;15.18;5.00;;;4.40;99.90;;;;;;5071334;28;20059;-66
2020/12/21 00:53:49;;;;;;;20.02;4.75;;;4.30;99.90;;;;;;5072023;28;20056;-62
2020/12/21 00:56:16;;;;;;;10.95;5.10;;;4.30;99.90;;;;;;5072321;28;20051;-65
2020/12/21 00:58:42;;;;;;;16.27;6.40;;;4.30;99.90;;;;;;5079305;28;20437;-62
2020/12/21 01:01:13;;;;;;;11.15;4.60;;;4.40;99.90;;;;;;5092156;28;20036;-62
2020/12/21 01:03:39;;;;;;;21.15;5.30;;;4.30;99.90;;;;;;5092200;28;20533;-64
2020/12/21 01:06:05;;;;;;;16.33;4.63;;;4.40;99.90;;;;;;5091601;28;20035;-66
2020/12/21 01:08:34;;;;;;;13.02;4.25;;;4.40;99.90;;;;;;5086079;28;20028;-65
2020/12/21 01:11:00;;;;;;;17.42;4.47;;;4.30;99.90;;;;;;5071506;28;20036;-64
2020/12/21 01:13:25;;;;;;;14.02;3.78;;;4.30;99.90;;;;;;5071322;28;20033;-65
2020/12/21 01:15:51;;;;;;;11.85;4.32;;;4.40;99.90;;;;;;5090810;28;20153;-63
2020/12/21 01:18:17;;;;;;;19.98;4.50;;;4.30;99.90;;;;;;5091751;28;20051;-67
2020/12/21 01:20:43;;;;;;;12.63;3.63;;;4.30;99.90;;;;;;5091440;28;20029;-65
2020/12/21 01:23:09;;;;;;;12.00;3.80;;;4.40;99.90;;;;;;5071327;28;20035;-63
2020/12/21 01:25:35;;;;;;;18.13;4.05;;;4.30;99.90;;;;;;5071246;28;20032;-65
2020/12/21 01:28:01;;;;;;;13.70;3.65;;;4.30;99.90;;;;;;5071414;28;20032;-66
2020/12/21 01:30:27;;;;;;;13.40;3.42;;;4.30;99.90;;;;;;5071547;28;20020;-64
2020/12/21 01:32:52;;;;;;;15.27;3.55;;;4.40;99.90;;;;;;5086845;28;20036;-65
2020/12/21 01:35:18;;;;;;;10.65;2.83;;;4.40;99.90;;;;;;5099127;28;20035;-62
2020/12/21 01:37:43;;;;;;;8.88;3.35;;;4.40;99.90;;;;;;5075965;28;20031;-64
2020/12/21 01:40:10;;;;;;;7.55;2.45;;;4.50;99.90;;;;;;5075178;28;20043;-66
2020/12/21 01:42:36;;;;;;;12.23;2.63;;;4.50;99.90;;;;;;5087396;28;20386;-63
2020/12/21 01:45:02;;;;;;;12.80;2.60;;;4.50;99.90;;;;;;5088514;28;20028;-64
2020/12/21 01:47:28;;;;;;;8.98;2.80;;;4.40;99.90;;;;;;5070521;28;20720;-63
2020/12/21 01:49:54;;;;;;;15.38;3.45;;;4.40;99.90;;;;;;5071064;28;20060;-65
2020/12/21 01:52:19;;;;;;;11.65;2.75;;;4.40;99.90;;;;;;5070825;28;20074;-66
2020/12/21 01:54:47;;;;;;;17.58;3.58;;;4.40;99.90;;;;;;5070701;28;20040;-62
2020/12/21 01:57:13;;;;;;;12.98;2.92;;;4.40;99.90;;;;;;5073688;28;20021;-62
2020/12/21 01:59:40;;;;;;;17.55;2.60;;;4.40;99.90;;;;;;5091029;28;20470;-62
2020/12/21 02:02:05;;;;;;;8.25;2.28;;;4.30;99.90;;;;;;5073040;28;20112;-62
2020/12/21 02:04:31;;;;;;;12.32;2.97;;;4.30;99.90;;;;;;5077484;28;20542;-64
2020/12/21 02:06:59;;;;;;;17.65;3.00;;;4.30;99.90;;;;;;5101321;28;20035;-63
2020/12/21 02:09:25;;;;;;;7.05;2.22;;;4.30;99.90;;;;;;5101551;28;20024;-64
2020/12/21 02:11:51;;;;;;;14.68;2.63;;;4.40;99.90;;;;;;5090257;28;20028;-65
2020/12/21 02:14:16;;;;;;;6.10;2.03;;;4.30;99.90;;;;;;5090449;28;20441;-63
2020/12/21 02:16:42;;;;;;;12.68;2.13;;;4.30;99.90;;;;;;5079218;28;20478;-64
2020/12/21 02:19:07;;;;;;;7.18;2.38;;;4.20;99.90;;;;;;5070140;28;20024;-64
2020/12/21 02:21:32;;;;;;;9.02;2.60;;;4.20;99.90;;;;;;5079025;28;20031;-64
2020/12/21 02:23:58;;;;;;;12.20;2.42;;;4.20;99.90;;;;;;5090569;28;20020;-64
2020/12/21 02:26:23;;;;;;;8.85;2.05;;;4.20;99.90;;;;;;5091095;28;20748;-62
2020/12/21 02:28:57;;;;;;;20.52;2.50;;;4.20;99.90;;;;;;5089534;28;20075;-66
2020/12/21 02:31:24;;;;;;;9.85;2.22;;;4.20;99.90;;;;;;5090468;28;20497;-61
2020/12/21 02:33:50;;;;;;;15.48;2.30;;;4.20;99.90;;;;;;5090125;28;20111;-65
2020/12/21 02:36:15;;;;;;;7.85;2.10;;;4.20;99.90;;;;;;5088624;28;20111;-64
2020/12/21 02:38:41;;;;;;;15.05;2.60;;;4.30;99.90;;;;;;5090269;28;20060;-63
2020/12/21 02:41:08;;;;;;;16.15;3.42;;;4.30;99.90;;;;;;5088139;28;20028;-66
2020/12/21 02:43:33;;;;;;;12.05;2.15;;;4.30;99.90;;;;;;5086113;28;20098;-64
2020/12/21 02:45:59;;;;;;;11.43;2.20;;;4.20;99.90;;;;;;5069497;28;20040;-63
2020/12/21 02:48:25;;;;;;;7.97;2.40;;;4.30;99.90;;;;;;5069960;28;20025;-64
2020/12/21 02:50:51;;;;;;;12.68;2.28;;;4.30;99.90;;;;;;5069663;28;20032;-65
2020/12/21 02:53:17;;;;;;;12.27;2.83;;;4.40;99.90;;;;;;5070835;28;20028;-64
2020/12/21 02:55:46;;;;;;;12.00;3.45;;;4.50;99.90;;;;;;5089854;28;20689;-62
2020/12/21 02:58:12;;;;;;;19.65;2.38;;;4.50;99.90;;;;;;5089366;28;20098;-64
2020/12/21 03:00:38;;;;;;;9.38;1.95;;;4.60;99.90;;;;;;5070876;28;20029;-65
2020/12/21 03:03:05;;;;;;;9.70;2.20;;;4.60;99.90;;;;;;5069902;28;20033;-67
2020/12/21 03:05:31;;;;;;;13.90;1.90;;;4.60;99.90;;;;;;5069733;28;20070;-61
2020/12/21 03:07:57;;;;;;;12.55;2.45;;;4.60;99.90;;;;;;5080782;28;20027;-65
2020/12/21 03:10:23;;;;;;;12.30;2.38;;;4.60;99.90;;;;;;5089996;28;20475;-63
2020/12/21 03:12:48;;;;;;;10.23;2.97;;;4.70;99.90;;;;;;5089944;28;20095;-63
2020/12/21 03:15:14;;;;;;;7.00;2.22;;;4.70;99.90;;;;;;5087444;28;20036;-61
2020/12/21 03:17:39;;;;;;;9.30;2.20;;;4.70;99.90;;;;;;5089841;28;20028;-63
2020/12/21 03:20:05;;;;;;;10.55;2.63;;;4.80;99.90;;;;;;5089295;28;20028;-64
2020/12/21 03:22:31;;;;;;;14.85;3.45;;;4.90;99.90;;;;;;5089490;28;20066;-61
2020/12/21 03:24:58;;;;;;;16.23;3.83;;;4.90;99.90;;;;;;5073595;28;20024;-64
2020/12/21 03:27:24;;;;;;;9.95;3.03;;;4.90;99.90;;;;;;5069425;28;20051;-64
2020/12/21 03:29:50;;;;;;;17.20;3.67;;;4.90;99.90;;;;;;5069265;28;20040;-64
2020/12/21 03:32:16;;;;;;;10.98;3.47;;;5.00;99.90;;;;;;5067384;28;20024;-65
2020/12/21 03:34:41;;;;;;;12.63;3.45;;;5.00;99.90;;;;;;5083771;28;20399;-67
2020/12/21 03:37:07;;;;;;;15.38;4.50;;;5.00;99.90;;;;;;5109502;28;20027;-64
2020/12/21 03:39:33;;;;;;;17.35;4.40;;;5.00;99.90;;;;;;5110099;28;20588;-65
2020/12/21 03:41:59;;;;;;;15.27;4.20;;;5.10;99.90;;;;;;5109262;28;20027;-65
2020/12/21 03:44:24;;;;;;;19.45;4.53;;;5.10;99.90;;;;;;5098701;28;20039;-65
2020/12/21 03:46:50;;;;;;;18.35;4.80;;;5.10;99.90;;;;;;5089342;28;20031;-65
2020/12/21 03:49:16;;;;;;;16.17;4.55;;;5.10;99.90;;;;;;5088882;28;20039;-64
2020/12/21 03:51:41;;;;;;;15.13;4.28;;;5.10;99.90;;;;;;5088997;28;20490;-62
2020/12/21 03:54:07;;;;;;;20.73;4.35;;;5.10;99.90;;;;;;5081211;28;20028;-64
2020/12/21 03:56:32;;;;;;;8.13;3.75;;;5.20;99.90;;;;;;5068686;28;20021;-62
2020/12/21 03:58:58;;;;;;;17.70;4.00;;;5.20;99.90;;;;;;5068732;28;20028;-65
2020/12/21 04:01:24;;;;;;;14.00;3.60;;;5.10;99.90;;;;;;5068458;28;20476;-65
2020/12/21 04:03:49;;;;;;;14.55;3.67;;;5.10;99.90;;;;;;5077351;28;20043;-62
2020/12/21 04:06:15;;;;;;;15.23;3.33;;;5.10;99.90;;;;;;5088944;28;20039;-63
2020/12/21 04:08:40;;;;;;;11.75;3.55;;;5.10;99.90;;;;;;5088773;28;20051;-66
2020/12/21 04:11:06;;;;;;;15.82;3.22;;;5.00;99.90;;;;;;5087327;28;20082;-64
2020/12/21 04:13:32;;;;;;;11.45;3.42;;;5.00;99.90;;;;;;5069563;28;20029;-64
2020/12/21 04:15:58;;;;;;;9.02;3.25;;;5.00;99.90;;;;;;5068955;28;20103;-62
2020/12/21 04:18:23;;;;;;;10.85;3.47;;;4.90;99.90;;;;;;5088416;28;20028;-62
2020/12/21 04:20:49;;;;;;;7.50;3.13;;;4.90;99.90;;;;;;5088570;28;20036;-64
2020/12/21 04:23:14;;;;;;;16.75;3.28;;;4.80;99.90;;;;;;5084792;28;20043;-65
2020/12/21 04:25:40;;;;;;;7.78;2.30;;;4.80;99.90;;;;;;5068323;28;20024;-64
2020/12/21 04:28:06;;;;;;;8.98;2.50;;;4.80;99.90;;;;;;5068466;28;20577;-65
2020/12/21 04:30:31;;;;;;;13.15;3.95;;;4.80;99.90;;;;;;5068827;28;20028;-65
2020/12/21 04:32:57;;;;;;;10.65;3.20;;;4.80;99.90;;;;;;5088516;28;20028;-63
2020/12/21 04:35:22;;;;;;;14.55;3.47;;;4.80;99.90;;;;;;5096289;28;20094;-67
2020/12/21 04:37:48;;;;;;;9.52;2.65;;;4.80;99.90;;;;;;5109166;28;20518;-64
2020/12/21 04:40:13;;;;;;;9.75;3.25;;;4.80;99.90;;;;;;5109333;28;20023;-64
2020/12/21 04:42:55;;;;;;;6.95;3.22;;;4.80;99.90;;;;;;5089549;28;20047;-66
2020/12/21 04:45:21;;;;;;;13.40;3.70;;;4.70;99.90;;;;;;5088458;28;20101;-65
2020/12/21 04:47:47;;;;;;;14.07;3.75;;;4.70;99.90;;;;;;5088263;28;20479;-64
2020/12/21 04:50:17;;;;;;;8.50;2.90;;;4.80;99.90;;;;;;5076484;28;20109;-63
2020/12/21 04:52:52;;;;;;;9.75;3.17;;;4.80;99.90;;;;;;5084628;28;20060;-64
2020/12/21 04:55:19;;;;;;;11.07;3.30;;;4.80;99.90;;;;;;5072444;28;20107;-64
2020/12/21 04:57:55;;;;;;;9.55;3.45;;;4.80;99.90;;;;;;5086986;28;20065;-64
2020/12/21 05:00:22;;;;;;;13.95;4.30;;;4.80;99.90;;;;;;5088090;28;20028;-64
2020/12/21 05:02:48;;;;;;;20.48;4.07;;;4.80;99.90;;;;;;5088264;28;20020;-65
2020/12/21 05:05:14;;;;;;;13.88;4.03;;;4.80;99.90;;;;;;5087996;28;20069;-62
2020/12/21 05:07:40;;;;;;;15.45;3.80;;;4.80;99.90;;;;;;5082230;28;20032;-62
2020/12/21 05:10:08;;;;;;;13.18;4.00;;;4.80;99.90;;;;;;5068047;28;20025;-64
2020/12/21 05:12:35;;;;;;;15.10;3.78;;;4.80;99.90;;;;;;5067917;28;20480;-61
2020/12/21 05:15:15;;;;;;;15.63;4.65;;;4.80;99.90;;;;;;5067883;28;20039;-62
2020/12/21 05:17:41;;;;;;;14.57;4.25;;;4.80;99.90;;;;;;5068228;28;20079;-62
2020/12/21 05:20:06;;;;;;;13.68;4.07;;;4.80;99.90;;;;;;5067920;28;20024;-62
2020/12/21 05:22:32;;;;;;;11.75;4.63;;;4.80;99.90;;;;;;5071164;28;20471;-65
2020/12/21 05:25:08;;;;;;;20.40;4.80;;;4.80;99.90;;;;;;5071764;28;20025;-65
2020/12/21 05:27:33;;;;;;;17.73;3.83;;;4.90;99.90;;;;;;5074442;28;20044;-65
2020/12/21 05:29:59;;;;;;;14.90;3.78;;;4.90;99.90;;;;;;5071011;28;20102;-64
2020/12/21 05:32:25;;;;;;;13.02;3.97;;;4.90;99.90;;;;;;5071260;28;20036;-63
2020/12/21 05:34:51;;;;;;;16.08;3.70;;;4.90;99.90;;;;;;5079191;28;20031;-64
2020/12/21 05:37:18;;;;;;;8.50;3.58;;;4.90;99.90;;;;;;5089336;28;20020;-64
2020/12/21 05:39:54;;;;;;;19.77;4.95;;;4.90;99.90;;;;;;5082363;28;20012;-64
2020/12/21 05:42:20;;;;;;;11.88;3.38;;;4.90;99.90;;;;;;5072199;28;20793;-63
2020/12/21 05:44:54;;;;;;;13.52;4.10;;;5.00;99.90;;;;;;5104211;28;20031;-65
2020/12/21 05:47:21;;;;;;;15.25;4.35;;;5.00;99.90;;;;;;5076141;28;20044;-63
2020/12/21 05:49:53;;;;;;;18.13;3.95;;;5.10;99.90;;;;;;5074777;28;20064;-67
2020/12/21 05:52:28;;;;;;;9.85;3.17;;;5.10;99.90;;;;;;5072509;28;20265;-64
2020/12/21 05:54:54;;;;;;;10.98;3.15;;;5.20;99.90;;;;;;5082236;28;20063;-61
2020/12/21 05:57:20;;;;;;;12.20;3.53;;;5.20;99.90;;;;;;5072866;28;20032;-62
2020/12/21 05:59:49;;;;;;;16.38;3.55;;;5.30;99.90;;;;;;5071172;28;20041;-63
2020/12/21 06:02:18;;;;;;;13.15;3.30;;;5.30;99.90;;;;;;5071197;28;20074;-62
2020/12/21 06:04:49;;;;;;;9.82;3.03;;;5.30;99.90;;;;;;5072649;28;20074;-62
2020/12/21 06:07:22;;;;;;;15.65;2.95;;;5.40;99.90;;;;;;5070660;28;20565;-67
2020/12/21 06:09:50;;;;;;;13.57;3.13;;;5.40;99.90;;;;;;5070964;28;20082;-63
2020/12/21 06:12:19;;;;;;;14.38;4.13;;;5.40;99.90;;;;;;5070347;28;20071;-63
2020/12/21 06:14:46;;;;;;;10.43;4.68;;;5.50;99.90;;;;;;5087476;28;20036;-63
2020/12/21 06:17:14;;;;;;;14.18;3.90;;;5.50;99.90;;;;;;5090631;28;20020;-63
2020/12/21 06:19:39;;;;;;;14.18;3.72;;;5.50;99.90;;;;;;5090837;28;20024;-64
2020/12/21 06:22:05;;;;;;;15.43;3.53;;;5.50;99.90;;;;;;5087777;28;20032;-64
2020/12/21 06:24:37;;;;;;;16.52;3.45;;;5.40;99.90;;;;;;5070085;28;20041;-64
2020/12/21 06:27:13;;;;;;;15.60;3.50;;;5.40;99.90;;;;;;5070880;28;20036;-63
2020/12/21 06:29:39;;;;;;;14.98;3.58;;;5.40;99.90;;;;;;5090387;28;20529;-64
2020/12/21 06:32:07;;;;;;;24.70;4.35;;;5.40;99.90;;;;;;5090361;28;20042;-65
2020/12/21 06:34:34;;;;;;;9.70;4.07;;;5.40;99.90;;;;;;5090156;28;20032;-60
2020/12/21 06:37:19;;;;;;;14.93;3.95;;;5.40;99.90;;;;;;5090382;28;20032;-60
2020/12/21 06:39:44;;;;;;;15.73;4.38;;;5.40;99.90;;;;;;5090280;28;20566;-65
2020/12/21 06:42:14;;;;;;;14.48;4.15;;;5.50;99.90;;;;;;5077280;28;20036;-62
2020/12/21 06:44:42;;;;;;;12.73;4.57;;;5.50;99.90;;;;;;5069449;28;20071;-63
2020/12/21 06:47:09;;;;;;;17.75;3.90;;;5.60;99.90;;;;;;5082348;28;20035;-61
2020/12/21 06:49:35;;;;;;;14.70;5.00;;;5.60;99.90;;;;;;5085678;28;20064;-65
2020/12/21 06:52:01;;;;;;;15.50;3.85;;;5.60;99.90;;;;;;5070079;28;20474;-60
2020/12/21 06:54:26;;;;;;;9.90;3.67;;;5.70;99.90;;;;;;5074994;28;20089;-61
2020/12/21 06:56:52;;;;;;;15.57;5.65;;;5.70;99.90;;;;;;5084968;28;20387;-63
2020/12/21 06:59:23;;;;;;;17.05;4.30;;;5.70;99.90;;;;;;5076006;28;20020;-61
2020/12/21 07:01:53;;;;;;;12.50;3.70;;;5.70;99.90;;;;;;5090234;28;20528;-61
2020/12/21 07:04:28;;;;;;;18.55;4.00;;;5.70;99.90;;;;;;5091711;28;20027;-61
2020/12/21 07:06:54;;;;;;;10.48;3.20;;;5.70;99.90;;;;;;5090489;28;20032;-61
2020/12/21 07:09:25;;;;;;;14.00;4.63;;;5.80;99.90;;;;;;5076106;28;20054;-64
2020/12/21 07:11:55;;;;;;;14.57;3.58;;;5.90;99.90;;;;;;5089720;28;20028;-62
2020/12/21 07:14:22;;;;;;;16.42;3.60;;;5.90;99.90;;;;;;5090777;28;20097;-61
2020/12/21 07:16:49;;;;;;;18.83;3.38;;;5.90;99.90;;;;;;5089590;28;20036;-64
2020/12/21 07:19:14;;;;;;;12.48;4.00;;;5.90;99.90;;;;;;5090317;28;20028;-64
2020/12/21 07:21:40;;;;;;;12.25;3.17;;;5.90;99.90;;;;;;5085448;28;20609;-62
2020/12/21 07:24:09;;;;;;;10.15;3.30;;;6.00;99.90;;;;;;5089770;28;20429;-62
2020/12/21 07:26:35;;;;;;;12.80;3.92;;;6.00;99.90;;;;;;5088028;28;20032;-62
2020/12/21 07:29:01;;;;;;;10.38;3.17;;;6.10;99.90;;;;;;5082271;28;20104;-62
2020/12/21 07:31:26;;;;;;;14.88;3.58;;;6.10;99.90;;;;;;5087634;28;20511;-65
2020/12/21 07:33:56;;;;;;;12.55;2.88;;;6.10;99.90;;;;;;5077147;28;20047;-63
2020/12/21 07:36:26;;;;;;;9.48;3.03;;;6.20;99.90;;;;;;5077772;28;20024;-63
2020/12/21 07:38:51;;;;;;;15.57;3.40;;;6.20;99.90;;;;;;5077241;28;20589;-62
2020/12/21 07:41:23;;;;;;;11.75;3.22;;;6.30;99.90;;;;;;5076753;28;20043;-63
2020/12/21 07:44:13;;;;;;;14.48;3.20;;;6.30;99.90;;;;;;5077719;28;20035;-62
2020/12/21 07:46:43;;;;;;;12.65;3.47;;;6.40;99.90;;;;;;5076841;28;20539;-64
2020/12/21 07:49:10;;;;;;;12.50;3.83;;;6.40;99.90;;;;;;5078936;28;20025;-62
2020/12/21 07:51:39;;;;;;;17.05;3.72;;;6.50;99.90;;;;;;5077693;28;20021;-63
2020/12/21 07:54:06;;;;;;;14.40;3.90;;;6.50;99.90;;;;;;5077958;28;20086;-65
2020/12/21 07:56:31;;;;;;;11.82;4.00;;;6.50;99.90;;;;;;5078425;28;20099;-64
2020/12/21 07:58:57;;;;;;;12.77;3.92;;;6.60;99.90;;;;;;5076215;28;20661;-65
2020/12/21 08:01:23;;;;;;;18.85;4.90;;;6.60;99.90;;;;;;5078880;28;20024;-65
2020/12/21 08:03:52;;;;;;;10.65;4.47;;;6.60;99.90;;;;;;5078715;28;20032;-64
2020/12/21 08:06:22;;;;;;;18.98;4.10;;;6.60;99.90;;;;;;5077875;28;20036;-63
2020/12/21 08:08:48;;;;;;;12.50;4.30;;;6.70;99.90;;;;;;5076684;28;20041;-64
2020/12/21 08:11:16;;;;;;;12.55;4.03;;;6.70;99.90;;;;;;5076726;28;20032;-65
2020/12/21 08:13:51;;;;;;;16.02;3.80;;;6.80;99.90;;;;;;5078374;28;20460;-63
2020/12/21 08:16:24;;;;;;;16.50;5.45;;;6.80;99.90;;;;;;5078036;28;20028;-64
2020/12/21 08:18:53;;;;;;;16.00;4.45;;;6.80;99.90;;;;;;5077897;28;20186;-64
2020/12/21 08:21:22;;;;;;;19.02;4.22;;;6.90;99.90;;;;;;5078990;28;20514;-61
2020/12/21 08:23:52;;;;;;;15.63;4.68;;;6.90;99.90;;;;;;5077401;28;20479;-62
2020/12/21 08:26:18;;;;;;;18.77;3.72;;;6.90;99.90;;;;;;5077054;28;20048;-63
2020/12/21 08:28:43;;;;;;;13.77;4.30;;;7.00;99.90;;;;;;5077994;28;20055;-64
2020/12/21 08:31:12;;;;;;;16.83;4.22;;;7.00;99.90;;;;;;5077591;28;20543;-65
2020/12/21 08:33:42;;;;;;;21.00;4.72;;;7.00;99.90;;;;;;5078043;28;20027;-63
2020/12/21 08:36:21;;;;;;;7.28;3.08;;;7.10;99.90;;;;;;5077907;28;20436;-61
2020/12/21 08:38:47;;;;;;;13.75;3.85;;;7.10;99.90;;;;;;5075191;28;20025;-61
2020/12/21 08:41:13;;;;;;;21.02;5.68;;;7.10;99.90;;;;;;5076767;28;20017;-61
2020/12/21 08:43:39;;;;;;;13.85;3.72;;;7.10;99.90;;;;;;5076921;28;20077;-61
2020/12/21 08:46:09;;;;;;;9.55;3.40;;;7.10;99.90;;;;;;5076774;28;20114;-61
2020/12/21 08:48:39;;;;;;;13.88;4.10;;;7.20;99.90;;;;;;5084610;28;20043;-61
2020/12/21 08:51:04;;;;;;;16.60;4.15;;;7.20;99.90;;;;;;5077721;28;20052;-61
2020/12/21 08:53:30;;;;;;;18.52;3.92;;;7.30;99.90;;;;;;5079813;28;20029;-62
2020/12/21 08:55:55;;;;;;;14.52;3.63;;;7.30;99.90;;;;;;5082867;28;20479;-61
2020/12/21 08:58:21;;;;;;;11.48;3.63;;;7.30;99.90;;;;;;5086154;28;20038;-61
2020/12/21 09:00:46;;;;;;;12.88;3.58;;;7.40;99.90;;;;;;5089786;28;20110;-60
2020/12/21 09:03:12;;;;;;;18.33;3.28;;;7.40;99.90;;;;;;5071895;28;20028;-61
2020/12/21 09:05:37;;;;;;;11.50;3.60;;;7.50;99.90;;;;;;5080922;28;20451;-61
2020/12/21 09:08:03;;;;;;;15.48;3.85;;;7.50;99.90;;;;;;5083868;28;20028;-60
2020/12/21 09:10:29;;;;;;;9.13;3.20;;;7.50;99.90;;;;;;5079133;28;20149;-61
2020/12/21 09:12:54;;;;;;;12.07;3.20;;;7.60;99.90;;;;;;5079587;28;20103;-61
2020/12/21 09:15:20;;;;;;;16.80;3.90;;;7.60;99.90;;;;;;5071068;28;20024;-61
2020/12/21 09:17:45;;;;;;;11.25;3.58;;;7.60;99.90;;;;;;5072082;28;20091;-62
2020/12/21 09:20:11;;;;;;;16.30;4.55;;;7.60;99.90;;;;;;5088224;28;20020;-61
2020/12/21 09:22:36;;;;;;;11.90;3.33;;;7.70;99.90;;;;;;5089727;28;20461;-61
2020/12/21 09:25:03;;;;;;;17.02;4.25;;;7.70;99.90;;;;;;5086744;28;20047;-62
2020/12/21 09:27:28;;;;;;;11.68;3.63;;;7.70;99.90;;;;;;5074686;28;20029;-62
2020/12/21 09:29:54;;;;;;;12.70;3.30;;;7.80;99.90;;;;;;5076833;28;20418;-61
2020/12/21 09:32:19;;;;;;;16.75;2.83;;;7.90;99.90;;;;;;5086426;28;20082;-62
2020/12/21 09:34:45;;;;;;;10.10;2.85;;;7.90;99.90;;;;;;5089752;28;20040;-62
2020/12/21 09:37:13;;;;;;;16.95;2.97;;;7.90;99.90;;;;;;5090045;28;20028;-62
2020/12/21 09:39:38;;;;;;;9.50;3.05;;;8.00;99.90;;;;;;5091080;28;20027;-62
2020/12/21 09:42:04;;;;;;;11.57;3.38;;;8.00;99.90;;;;;;5077310;28;20028;-62
2020/12/21 09:44:30;;;;;;;10.18;2.88;;;8.20;99.90;;;;;;5081936;28;20032;-62
2020/12/21 09:46:56;;;;;;;9.45;2.97;;;8.20;99.90;;;;;;5076875;28;20024;-63
2020/12/21 09:49:21;;;;;;;10.98;3.10;;;8.30;99.90;;;;;;5071796;28;20437;-62
2020/12/21 09:51:50;;;;;;;10.38;3.00;;;8.30;99.90;;;;;;5086727;28;20057;-62
2020/12/21 09:54:17;;;;;;;15.10;3.30;;;8.30;99.90;;;;;;5070784;28;20148;-62
2020/12/21 09:56:46;;;;;;;10.65;2.22;;;8.40;99.90;;;;;;5079867;28;20029;-62
2020/12/21 09:59:12;;;;;;;11.35;2.55;;;8.40;99.90;;;;;;5079852;28;20378;-62
2020/12/21 10:01:37;;;;;;;9.40;2.80;;;8.50;99.90;;;;;;5086392;28;20021;-62
2020/12/21 10:04:03;;;;;;;12.75;2.70;;;8.50;99.90;;;;;;5079350;28;20020;-62
2020/12/21 10:06:28;;;;;;;8.57;2.40;;;8.60;99.90;;;;;;5088016;28;20066;-61
2020/12/21 10:08:54;;;;;;;7.57;2.45;;;8.60;99.90;;;;;;5073847;28;20033;-62
2020/12/21 10:11:19;;;;;;;16.95;2.72;;;8.70;99.90;;;;;;5070509;28;20399;-62
2020/12/21 10:13:45;;;;;;;7.60;2.45;;;8.70;99.90;;;;;;5073537;28;20032;-62
2020/12/21 10:16:10;;;;;;;13.57;2.55;;;8.70;99.90;;;;;;5082793;28;20487;-61
2020/12/21 10:18:36;;;;;;;9.32;2.83;;;8.80;99.90;;;;;;5083260;28;20051;-62
2020/12/21 10:21:02;;;;;;;11.73;3.20;;;8.80;99.90;;;;;;5087201;28;20024;-62
2020/12/21 10:23:28;;;;;;;16.77;3.30;;;8.80;99.90;;;;;;5083821;28;20683;-62
2020/12/21 10:25:53;;;;;;;14.80;2.88;;;8.80;99.90;;;;;;5080472;28;20032;-62
2020/12/21 10:28:19;;;;;;;9.43;2.53;;;8.80;99.90;;;;;;5076367;28;20024;-61
2020/12/21 10:30:44;;;;;;;10.90;2.20;;;8.80;99.90;;;;;;5090504;28;20738;-61
2020/12/21 10:33:10;;;;;;;10.30;2.67;;;8.80;99.90;;;;;;5081840;28;20028;-61
2020/12/21 10:35:39;;;;;;;9.82;2.55;;;8.80;99.90;;;;;;5083877;28;20028;-62
2020/12/21 10:38:05;;;;;;;11.55;2.90;;;8.90;99.90;;;;;;5076808;28;20058;-62
2020/12/21 10:40:31;;;;;;;23.38;2.78;;;8.90;99.90;;;;;;5084868;28;20456;-61
2020/12/21 10:42:56;;;;;;;17.73;2.53;;;8.90;99.90;;;;;;5079840;28;20112;-60
2020/12/21 10:45:22;;;;;;;10.20;2.70;;;8.90;99.90;;;;;;5075241;28;20042;-61
2020/12/21 10:47:47;;;;;;;17.00;3.33;;;9.00;99.90;;;;;;5084871;28;20544;-61
2020/12/21 10:50:13;;;;;;;10.18;2.05;;;9.00;99.90;;;;;;5076522;28;20784;-61
2020/12/21 10:52:38;;;;;;;10.50;3.25;;;9.00;99.90;;;;;;5089882;28;20071;-60
2020/12/21 10:55:04;;;;;;;12.02;3.22;;;9.10;99.90;;;;;;5086761;28;20043;-61
2020/12/21 10:57:30;;;;;;;12.18;2.85;;;9.10;99.90;;;;;;5084592;28;20032;-62
2020/12/21 10:59:55;;;;;;;13.80;3.30;;;9.10;99.90;;;;;;5099268;28;20027;-61
2020/12/21 11:02:21;;;;;;;8.68;3.15;;;9.10;99.90;;;;;;5097940;28;20020;-62
2020/12/21 11:04:47;;;;;;;14.70;3.72;;;9.10;99.90;;;;;;5084383;28;20517;-62
2020/12/21 11:07:13;;;;;;;12.35;3.90;;;9.10;99.90;;;;;;5077745;28;20043;-62
2020/12/21 11:09:38;;;;;;;14.82;3.72;;;9.10;99.90;;;;;;5081801;28;20031;-62
2020/12/21 11:12:04;;;;;;;12.73;3.17;;;9.10;99.90;;;;;;5077976;28;20078;-62
2020/12/21 11:14:30;;;;;;;9.63;3.35;;;9.10;99.90;;;;;;5090351;28;20058;-62
2020/12/21 11:16:57;;;;;;;13.35;3.88;;;9.20;99.90;;;;;;5070359;28;20085;-62
2020/12/21 11:19:23;;;;;;;11.52;3.17;;;9.20;99.90;;;;;;5068475;28;20028;-61
2020/12/21 11:21:49;;;;;;;10.45;3.42;;;9.20;99.90;;;;;;5079475;28;20091;-62
2020/12/21 11:24:14;;;;;;;23.20;4.20;;;9.20;99.90;;;;;;5073064;28;20116;-63
2020/12/21 11:26:40;;;;;;;13.35;4.97;;;9.20;99.90;;;;;;5086371;28;20040;-62
2020/12/21 11:29:05;;;;;;;14.23;4.30;;;9.30;99.90;;;;;;5089580;28;20044;-62
2020/12/21 11:31:32;;;;;;;13.60;5.10;;;9.20;99.90;;;;;;5070383;28;20082;-61
2020/12/21 11:33:58;;;;;;;11.68;4.60;;;9.30;99.90;;;;;;5073586;28;20028;-63
2020/12/21 11:36:24;;;;;;;13.80;5.47;;;9.30;99.90;;;;;;5077328;28;20039;-62
2020/12/21 11:38:49;;;;;;;13.18;6.80;;;9.30;99.90;;;;;;5079689;28;20063;-61
2020/12/21 11:41:15;;;;;;;15.90;5.65;;;9.30;99.90;;;;;;5073935;28;20052;-62
2020/12/21 11:43:40;;;;;;;11.10;6.03;;;9.30;99.90;;;;;;5078513;28;20039;-61
2020/12/21 11:46:06;;;;;;;22.63;5.68;;;9.30;99.90;;;;;;5092408;28;20026;-61
2020/12/21 11:48:32;;;;;;;17.33;5.75;;;9.30;99.90;;;;;;5094141;28;20463;-62
2020/12/21 11:50:57;;;;;;;18.90;5.22;;;9.30;99.90;;;;;;5084324;28;20042;-61
2020/12/21 11:53:23;;;;;;;13.70;5.25;;;9.20;99.90;;;;;;5084353;28;20599;-62
2020/12/21 11:55:48;;;;;;;14.65;5.47;;;9.20;99.90;;;;;;5081337;28;20051;-62
2020/12/21 11:58:14;;;;;;;12.10;5.35;;;9.20;99.90;;;;;;5087723;28;20055;-61
2020/12/21 12:00:39;;;;;;;16.30;6.03;;;9.20;99.90;;;;;;5079782;28;20032;-62
2020/12/21 12:03:05;;;;;;;13.95;5.80;;;9.20;99.90;;;;;;5076108;28;20025;-62
2020/12/21 12:05:33;;;;;;;15.85;6.78;;;9.20;99.90;;;;;;5075273;28;20032;-62
2020/12/21 12:07:58;;;;;;;18.48;6.03;;;9.30;99.90;;;;;;5088938;28;20084;-62
2020/12/21 12:10:24;;;;;;;14.00;5.25;;;9.20;99.90;;;;;;5084519;28;20056;-62
2020/12/21 12:12:49;;;;;;;16.60;5.60;;;9.30;99.90;;;;;;5075973;28;20044;-62
2020/12/21 12:15:15;;;;;;;11.35;5.22;;;9.20;99.90;;;;;;5098526;28;20031;-62
2020/12/21 12:17:40;;;;;;;12.07;5.32;;;9.20;99.90;;;;;;5062397;28;20021;-62
2020/12/21 12:20:06;;;;;;;17.50;5.90;;;9.20;99.90;;;;;;5079783;28;20029;-61
2020/12/21 12:22:32;;;;;;;13.30;5.43;;;9.20;99.90;;;;;;5077552;28;20028;-62
2020/12/21 12:24:57;;;;;;;16.83;6.40;;;9.20;99.90;;;;;;5081701;28;20043;-62
2020/12/21 12:27:24;;;;;;;19.45;6.43;;;9.20;99.90;;;;;;5078208;28;20690;-62
2020/12/21 12:29:50;;;;;;;16.35;7.25;;;9.20;99.90;;;;;;5081759;28;20540;-63
2020/12/21 12:32:16;;;;;;;14.40;6.68;;;9.10;99.90;;;;;;5086192;28;20036;-63
2020/12/21 12:34:47;;;;;;;19.00;6.63;;;9.10;99.90;;;;;;5088605;28;20035;-61
2020/12/21 12:37:13;;;;;;;16.73;8.18;;;9.10;99.90;;;;;;5085438;28;20056;-62
2020/12/21 12:39:42;;;;;;;16.42;6.53;;;9.10;99.90;;;;;;5079893;28;20064;-62
2020/12/21 12:42:10;;;;;;;18.25;8.95;;;9.00;99.90;;;;;;5085091;28;20085;-64
2020/12/21 12:44:36;;;;;;;15.88;7.35;;;9.00;99.90;;;;;;5102855;28;20027;-64
2020/12/21 12:47:01;;;;;;;11.55;6.28;;;9.00;99.90;;;;;;5094099;28;20088;-61